sensor_id;sensor_type;location;lat;lon;timestamp;pressure;altitude;pressure_sealevel;temperature;humidity
45357;BME280;31092;51.924;21.448;2023-08-17T00:02:12;100317.97;;;22.17;100.00
45357;BME280;31092;51.924;21.448;2023-08-17T00:04:38;100314.72;;;22.08;100.00
45357;BME280;31092;51.924;21.448;2023-08-17T00:07:04;100304.97;;;22.00;100.00
45357;BME280;31092;51.924;21.448;2023-08-17T00:09:30;100252.28;;;21.63;100.00
45357;BME280;31092;51.924;21.448;2023-08-17T00:11:55;100263.63;;;21.67;100.00
45357;BME280;31092;51.924;21.448;2023-08-17T00:14:21;100306.38;;;21.91;100.00
45357;BME280;31092;51.924;21.448;2023-08-17T00:16:48;100245.13;;;21.50;100.00
45357;BME280;31092;51.924;21.448;2023-08-17T00:19:14;100271.13;;;21.60;100.00
45357;BME280;31092;51.924;21.448;2023-08-17T00:21:40;100284.31;;;21.63;100.00
45357;BME280;31092;51.924;21.448;2023-08-17T00:24:06;100324.63;;;21.86;100.00
45357;BME280;31092;51.924;21.448;2023-08-17T00:26:31;100302.94;;;21.72;100.00
45357;BME280;31092;51.924;21.448;2023-08-17T00:28:57;100257.28;;;21.43;100.00
45357;BME280;31092;51.924;21.448;2023-08-17T00:31:22;100311.50;;;21.76;100.00
45357;BME280;31092;51.924;21.448;2023-08-17T00:33:48;100295.06;;;21.64;100.00
45357;BME280;31092;51.924;21.448;2023-08-17T00:36:13;100326.06;;;21.76;100.00
45357;BME280;31092;51.924;21.448;2023-08-17T00:38:39;100235.53;;;21.29;100.00
45357;BME280;31092;51.924;21.448;2023-08-17T00:41:04;100265.13;;;21.39;100.00
45357;BME280;31092;51.924;21.448;2023-08-17T00:43:30;100260.75;;;21.38;100.00
45357;BME280;31092;51.924;21.448;2023-08-17T00:45:55;100256.16;;;21.32;100.00
45357;BME280;31092;51.924;21.448;2023-08-17T00:48:21;100252.59;;;21.32;100.00
45357;BME280;31092;51.924;21.448;2023-08-17T00:50:49;100315.69;;;21.67;100.00
45357;BME280;31092;51.924;21.448;2023-08-17T00:53:15;100267.63;;;21.41;100.00
45357;BME280;31092;51.924;21.448;2023-08-17T00:55:42;100259.28;;;21.36;100.00
45357;BME280;31092;51.924;21.448;2023-08-17T00:58:08;100310.19;;;21.55;100.00
45357;BME280;31092;51.924;21.448;2023-08-17T01:00:34;100254.09;;;21.16;100.00
45357;BME280;31092;51.924;21.448;2023-08-17T01:03:00;100329.97;;;21.57;100.00
45357;BME280;31092;51.924;21.448;2023-08-17T01:05:26;100259.00;;;21.14;100.00
45357;BME280;31092;51.924;21.448;2023-08-17T01:07:51;100279.94;;;21.20;100.00
45357;BME280;31092;51.924;21.448;2023-08-17T01:10:17;100301.75;;;21.26;100.00
45357;BME280;31092;51.924;21.448;2023-08-17T01:12:57;100330.91;;;21.39;100.00
45357;BME280;31092;51.924;21.448;2023-08-17T01:15:36;100318.50;;;21.37;100.00
45357;BME280;31092;51.924;21.448;2023-08-17T01:18:14;100243.41;;;20.84;100.00
45357;BME280;31092;51.924;21.448;2023-08-17T01:20:41;100238.19;;;20.83;100.00
45357;BME280;31092;51.924;21.448;2023-08-17T01:23:07;100324.28;;;21.28;100.00
45357;BME280;31092;51.924;21.448;2023-08-17T01:25:33;100309.59;;;21.23;100.00
45357;BME280;31092;51.924;21.448;2023-08-17T01:28:03;100252.69;;;20.83;100.00
45357;BME280;31092;51.924;21.448;2023-08-17T01:30:30;100327.94;;;21.22;100.00
45357;BME280;31092;51.924;21.448;2023-08-17T01:33:05;100252.78;;;20.76;100.00
45357;BME280;31092;51.924;21.448;2023-08-17T01:35:46;100316.03;;;21.17;100.00
45357;BME280;31092;51.924;21.448;2023-08-17T01:38:18;100301.00;;;21.08;100.00
45357;BME280;31092;51.924;21.448;2023-08-17T01:40:48;100258.88;;;20.78;100.00
45357;BME280;31092;51.924;21.448;2023-08-17T01:43:19;100293.13;;;20.99;100.00
45357;BME280;31092;51.924;21.448;2023-08-17T01:45:45;100295.53;;;21.08;100.00
45357;BME280;31092;51.924;21.448;2023-08-17T01:48:11;100236.09;;;20.66;100.00
45357;BME280;31092;51.924;21.448;2023-08-17T01:50:36;100287.88;;;20.98;100.00
45357;BME280;31092;51.924;21.448;2023-08-17T01:53:02;100308.97;;;21.09;100.00
45357;BME280;31092;51.924;21.448;2023-08-17T01:55:34;100290.84;;;20.96;100.00
45357;BME280;31092;51.924;21.448;2023-08-17T01:58:01;100256.00;;;20.73;100.00
45357;BME280;31092;51.924;21.448;2023-08-17T02:00:26;100331.59;;;21.04;100.00
45357;BME280;31092;51.924;21.448;2023-08-17T02:02:52;100266.81;;;20.68;100.00
45357;BME280;31092;51.924;21.448;2023-08-17T02:05:17;100265.00;;;20.62;100.00
45357;BME280;31092;51.924;21.448;2023-08-17T02:07:43;100276.78;;;20.63;100.00
45357;BME280;31092;51.924;21.448;2023-08-17T02:10:11;100294.22;;;20.80;100.00
45357;BME280;31092;51.924;21.448;2023-08-17T02:12:37;100346.25;;;21.10;100.00
45357;BME280;31092;51.924;21.448;2023-08-17T02:15:03;100343.38;;;21.05;100.00
45357;BME280;31092;51.924;21.448;2023-08-17T02:17:29;100298.88;;;20.79;100.00
45357;BME280;31092;51.924;21.448;2023-08-17T02:19:54;100294.59;;;20.84;100.00
45357;BME280;31092;51.924;21.448;2023-08-17T02:22:20;100365.06;;;21.37;100.00
45357;BME280;31092;51.924;21.448;2023-08-17T02:24:45;100297.97;;;20.97;100.00
45357;BME280;31092;51.924;21.448;2023-08-17T02:27:12;100381.41;;;21.43;100.00
45357;BME280;31092;51.924;21.448;2023-08-17T02:29:37;100319.56;;;21.05;100.00
45357;BME280;31092;51.924;21.448;2023-08-17T02:32:04;100384.97;;;21.44;100.00
45357;BME280;31092;51.924;21.448;2023-08-17T02:34:30;100314.66;;;20.96;100.00
45357;BME280;31092;51.924;21.448;2023-08-17T02:36:55;100321.56;;;20.98;100.00
45357;BME280;31092;51.924;21.448;2023-08-17T02:39:21;100368.34;;;21.27;100.00
45357;BME280;31092;51.924;21.448;2023-08-17T02:41:47;100325.75;;;21.01;100.00
45357;BME280;31092;51.924;21.448;2023-08-17T02:44:14;100351.50;;;21.12;100.00
45357;BME280;31092;51.924;21.448;2023-08-17T02:46:40;100327.53;;;20.95;100.00
45357;BME280;31092;51.924;21.448;2023-08-17T02:49:06;100324.28;;;20.98;100.00
45357;BME280;31092;51.924;21.448;2023-08-17T02:51:31;100366.09;;;21.24;100.00
45357;BME280;31092;51.924;21.448;2023-08-17T02:53:57;100333.38;;;20.99;100.00
45357;BME280;31092;51.924;21.448;2023-08-17T02:56:22;100367.97;;;21.23;100.00
45357;BME280;31092;51.924;21.448;2023-08-17T02:58:48;100380.06;;;21.34;100.00
45357;BME280;31092;51.924;21.448;2023-08-17T03:01:13;100339.69;;;20.99;100.00
45357;BME280;31092;51.924;21.448;2023-08-17T03:03:39;100337.41;;;20.96;100.00
45357;BME280;31092;51.924;21.448;2023-08-17T03:06:05;100396.34;;;21.29;100.00
45357;BME280;31092;51.924;21.448;2023-08-17T03:08:31;100328.53;;;20.83;100.00
45357;BME280;31092;51.924;21.448;2023-08-17T03:10:56;100382.38;;;21.19;100.00
45357;BME280;31092;51.924;21.448;2023-08-17T03:13:22;100394.16;;;21.19;100.00
45357;BME280;31092;51.924;21.448;2023-08-17T03:15:47;100404.44;;;21.24;100.00
45357;BME280;31092;51.924;21.448;2023-08-17T03:18:13;100393.31;;;21.19;100.00
45357;BME280;31092;51.924;21.448;2023-08-17T03:20:38;100388.75;;;21.13;100.00
45357;BME280;31092;51.924;21.448;2023-08-17T03:23:04;100388.31;;;21.16;100.00
45357;BME280;31092;51.924;21.448;2023-08-17T03:25:34;100389.38;;;21.15;100.00
45357;BME280;31092;51.924;21.448;2023-08-17T03:28:00;100343.03;;;20.83;100.00
45357;BME280;31092;51.924;21.448;2023-08-17T03:30:26;100393.03;;;21.09;100.00
45357;BME280;31092;51.924;21.448;2023-08-17T03:32:51;100403.31;;;21.13;100.00
45357;BME280;31092;51.924;21.448;2023-08-17T03:35:17;100344.56;;;20.79;100.00
45357;BME280;31092;51.924;21.448;2023-08-17T03:37:43;100360.53;;;20.82;100.00
45357;BME280;31092;51.924;21.448;2023-08-17T03:40:08;100340.34;;;20.65;100.00
45357;BME280;31092;51.924;21.448;2023-08-17T03:42:34;100339.72;;;20.63;100.00
45357;BME280;31092;51.924;21.448;2023-08-17T03:45:00;100400.13;;;20.98;100.00
45357;BME280;31092;51.924;21.448;2023-08-17T03:47:25;100352.56;;;20.62;100.00
45357;BME280;31092;51.924;21.448;2023-08-17T03:49:51;100415.13;;;20.95;100.00
45357;BME280;31092;51.924;21.448;2023-08-17T03:52:17;100371.03;;;20.67;100.00
45357;BME280;31092;51.924;21.448;2023-08-17T03:54:43;100363.97;;;20.59;100.00
45357;BME280;31092;51.924;21.448;2023-08-17T03:57:08;100345.16;;;20.44;100.00
45357;BME280;31092;51.924;21.448;2023-08-17T03:59:34;100411.03;;;20.86;100.00
45357;BME280;31092;51.924;21.448;2023-08-17T04:01:59;100405.56;;;20.86;100.00
45357;BME280;31092;51.924;21.448;2023-08-17T04:04:25;100333.63;;;20.42;100.00
45357;BME280;31092;51.924;21.448;2023-08-17T04:06:51;100404.25;;;20.89;100.00
45357;BME280;31092;51.924;21.448;2023-08-17T04:09:16;100359.56;;;20.58;100.00
45357;BME280;31092;51.924;21.448;2023-08-17T04:11:42;100404.47;;;20.87;100.00
45357;BME280;31092;51.924;21.448;2023-08-17T04:14:07;100356.00;;;20.58;100.00
45357;BME280;31092;51.924;21.448;2023-08-17T04:16:34;100407.38;;;20.92;100.00
45357;BME280;31092;51.924;21.448;2023-08-17T04:19:00;100416.94;;;21.01;100.00
45357;BME280;31092;51.924;21.448;2023-08-17T04:21:28;100346.50;;;20.60;100.00
45357;BME280;31092;51.924;21.448;2023-08-17T04:23:54;100374.22;;;20.82;100.00
45357;BME280;31092;51.924;21.448;2023-08-17T04:26:19;100336.78;;;20.64;100.00
45357;BME280;31092;51.924;21.448;2023-08-17T04:28:45;100402.09;;;21.09;100.00
45357;BME280;31092;51.924;21.448;2023-08-17T04:31:11;100401.31;;;21.20;100.00
45357;BME280;31092;51.924;21.448;2023-08-17T04:33:43;100410.00;;;21.36;100.00
45357;BME280;31092;51.924;21.448;2023-08-17T04:36:09;100417.03;;;21.43;100.00
45357;BME280;31092;51.924;21.448;2023-08-17T04:38:35;100406.91;;;21.44;100.00
45357;BME280;31092;51.924;21.448;2023-08-17T04:41:00;100417.22;;;21.60;100.00
45357;BME280;31092;51.924;21.448;2023-08-17T04:43:26;100359.19;;;21.33;100.00
45357;BME280;31092;51.924;21.448;2023-08-17T04:45:51;100360.31;;;21.44;100.00
45357;BME280;31092;51.924;21.448;2023-08-17T04:48:17;100403.91;;;21.75;100.00
45357;BME280;31092;51.924;21.448;2023-08-17T04:50:43;100339.59;;;21.48;100.00
45357;BME280;31092;51.924;21.448;2023-08-17T04:53:08;100411.81;;;21.95;100.00
45357;BME280;31092;51.924;21.448;2023-08-17T04:55:34;100413.94;;;22.05;100.00
45357;BME280;31092;51.924;21.448;2023-08-17T04:57:59;100411.09;;;22.12;100.00
45357;BME280;31092;51.924;21.448;2023-08-17T05:00:25;100405.38;;;22.13;100.00
45357;BME280;31092;51.924;21.448;2023-08-17T05:02:54;100355.88;;;21.96;100.00
45357;BME280;31092;51.924;21.448;2023-08-17T05:05:20;100371.78;;;22.18;100.00
45357;BME280;31092;51.924;21.448;2023-08-17T05:07:45;100416.84;;;22.57;100.00
45357;BME280;31092;51.924;21.448;2023-08-17T05:10:11;100377.59;;;22.33;100.00
45357;BME280;31092;51.924;21.448;2023-08-17T05:12:36;100419.19;;;22.77;100.00
45357;BME280;31092;51.924;21.448;2023-08-17T05:15:02;100399.47;;;22.80;100.00
45357;BME280;31092;51.924;21.448;2023-08-17T05:17:28;100388.25;;;22.82;100.00
45357;BME280;31092;51.924;21.448;2023-08-17T05:19:53;100371.09;;;22.75;100.00
45357;BME280;31092;51.924;21.448;2023-08-17T05:22:19;100352.00;;;22.68;100.00
45357;BME280;31092;51.924;21.448;2023-08-17T05:24:45;100415.53;;;23.12;100.00
45357;BME280;31092;51.924;21.448;2023-08-17T05:27:10;100413.47;;;23.19;100.00
45357;BME280;31092;51.924;21.448;2023-08-17T05:29:35;100365.44;;;22.93;100.00
45357;BME280;31092;51.924;21.448;2023-08-17T05:32:01;100353.81;;;22.91;100.00
45357;BME280;31092;51.924;21.448;2023-08-17T05:34:27;100359.06;;;23.04;100.00
45357;BME280;31092;51.924;21.448;2023-08-17T05:36:52;100432.47;;;23.49;100.00
45357;BME280;31092;51.924;21.448;2023-08-17T05:39:18;100318.75;;;22.93;100.00
45357;BME280;31092;51.924;21.448;2023-08-17T05:41:43;100368.88;;;23.29;100.00
45357;BME280;31092;51.924;21.448;2023-08-17T05:44:09;100379.72;;;23.35;100.00
45357;BME280;31092;51.924;21.448;2023-08-17T05:46:35;100379.47;;;23.37;100.00
45357;BME280;31092;51.924;21.448;2023-08-17T05:49:01;100451.81;;;23.83;100.00
45357;BME280;31092;51.924;21.448;2023-08-17T05:51:27;100374.16;;;23.47;100.00
45357;BME280;31092;51.924;21.448;2023-08-17T05:53:53;100434.31;;;23.89;100.00
45357;BME280;31092;51.924;21.448;2023-08-17T05:56:18;100371.16;;;23.65;100.00
45357;BME280;31092;51.924;21.448;2023-08-17T05:58:44;100394.97;;;23.88;100.00
45357;BME280;31092;51.924;21.448;2023-08-17T06:01:10;100383.97;;;23.88;100.00
45357;BME280;31092;51.924;21.448;2023-08-17T06:03:37;100424.16;;;24.23;100.00
45357;BME280;31092;51.924;21.448;2023-08-17T06:06:06;100374.63;;;24.06;100.00
45357;BME280;31092;51.924;21.448;2023-08-17T06:08:32;100374.28;;;24.20;100.00
45357;BME280;31092;51.924;21.448;2023-08-17T06:10:57;100425.22;;;24.56;100.00
45357;BME280;31092;51.924;21.448;2023-08-17T06:13:23;100415.22;;;24.72;100.00
45357;BME280;31092;51.924;21.448;2023-08-17T06:15:49;100417.88;;;24.83;100.00
45357;BME280;31092;51.924;21.448;2023-08-17T06:18:14;100410.75;;;24.88;100.00
45357;BME280;31092;51.924;21.448;2023-08-17T06:20:40;100375.66;;;24.78;100.00
45357;BME280;31092;51.924;21.448;2023-08-17T06:23:08;100421.72;;;25.26;100.00
45357;BME280;31092;51.924;21.448;2023-08-17T06:25:34;100397.94;;;25.20;100.00
45357;BME280;31092;51.924;21.448;2023-08-17T06:28:00;100411.94;;;25.41;100.00
45357;BME280;31092;51.924;21.448;2023-08-17T06:30:26;100402.25;;;25.38;100.00
45357;BME280;31092;51.924;21.448;2023-08-17T06:32:51;100379.91;;;25.35;100.00
45357;BME280;31092;51.924;21.448;2023-08-17T06:35:17;100382.25;;;25.48;100.00
45357;BME280;31092;51.924;21.448;2023-08-17T06:37:43;100350.88;;;25.27;100.00
45357;BME280;31092;51.924;21.448;2023-08-17T06:40:08;100421.56;;;25.65;100.00
45357;BME280;31092;51.924;21.448;2023-08-17T06:42:37;100424.34;;;25.65;100.00
45357;BME280;31092;51.924;21.448;2023-08-17T06:45:03;100362.09;;;25.20;100.00
45357;BME280;31092;51.924;21.448;2023-08-17T06:47:29;100432.66;;;25.70;100.00
45357;BME280;31092;51.924;21.448;2023-08-17T06:49:55;100401.69;;;25.63;100.00
45357;BME280;31092;51.924;21.448;2023-08-17T06:52:23;100421.78;;;25.86;100.00
45357;BME280;31092;51.924;21.448;2023-08-17T06:54:48;100440.69;;;26.04;100.00
45357;BME280;31092;51.924;21.448;2023-08-17T06:57:13;100391.13;;;25.82;100.00
45357;BME280;31092;51.924;21.448;2023-08-17T06:59:39;100386.38;;;25.77;100.00
45357;BME280;31092;51.924;21.448;2023-08-17T07:02:05;100389.25;;;25.88;100.00
45357;BME280;31092;51.924;21.448;2023-08-17T07:04:30;100409.19;;;26.00;100.00
45357;BME280;31092;51.924;21.448;2023-08-17T07:06:56;100399.56;;;26.02;100.00
45357;BME280;31092;51.924;21.448;2023-08-17T07:09:22;100385.47;;;26.04;100.00
45357;BME280;31092;51.924;21.448;2023-08-17T07:11:47;100441.34;;;26.54;100.00
45357;BME280;31092;51.924;21.448;2023-08-17T07:14:13;100432.00;;;26.55;100.00
45357;BME280;31092;51.924;21.448;2023-08-17T07:16:38;100426.75;;;26.58;100.00
45357;BME280;31092;51.924;21.448;2023-08-17T07:19:04;100373.28;;;26.37;100.00
45357;BME280;31092;51.924;21.448;2023-08-17T07:21:29;100378.94;;;26.53;100.00
45357;BME280;31092;51.924;21.448;2023-08-17T07:23:55;100400.63;;;26.81;100.00
45357;BME280;31092;51.924;21.448;2023-08-17T07:26:21;100453.88;;;27.19;100.00
45357;BME280;31092;51.924;21.448;2023-08-17T07:28:48;100446.72;;;27.28;100.00
45357;BME280;31092;51.924;21.448;2023-08-17T07:31:13;100373.59;;;26.98;100.00
45357;BME280;31092;51.924;21.448;2023-08-17T07:33:39;100427.94;;;27.40;100.00
45357;BME280;31092;51.924;21.448;2023-08-17T07:36:05;100381.72;;;27.26;100.00
45357;BME280;31092;51.924;21.448;2023-08-17T07:38:30;100419.69;;;27.61;100.00
45357;BME280;31092;51.924;21.448;2023-08-17T07:40:56;100418.28;;;27.63;100.00
45357;BME280;31092;51.924;21.448;2023-08-17T07:43:22;100370.97;;;27.39;100.00
45357;BME280;31092;51.924;21.448;2023-08-17T07:45:55;100369.88;;;27.51;100.00
45357;BME280;31092;51.924;21.448;2023-08-17T07:48:21;100373.47;;;27.66;100.00
45357;BME280;31092;51.924;21.448;2023-08-17T07:50:51;100387.91;;;27.94;100.00
45357;BME280;31092;51.924;21.448;2023-08-17T07:53:17;100389.53;;;28.10;100.00
45357;BME280;31092;51.924;21.448;2023-08-17T07:55:43;100434.13;;;28.50;100.00
45357;BME280;31092;51.924;21.448;2023-08-17T07:58:08;100387.56;;;28.31;100.00
45357;BME280;31092;51.924;21.448;2023-08-17T08:00:34;100376.19;;;28.48;100.00
45357;BME280;31092;51.924;21.448;2023-08-17T08:02:59;100391.38;;;28.66;100.00
45357;BME280;31092;51.924;21.448;2023-08-17T08:05:25;100443.38;;;28.95;100.00
45357;BME280;31092;51.924;21.448;2023-08-17T08:07:51;100449.78;;;29.00;100.00
45357;BME280;31092;51.924;21.448;2023-08-17T08:10:16;100389.16;;;28.63;100.00
45357;BME280;31092;51.924;21.448;2023-08-17T08:12:42;100411.06;;;28.59;100.00
45357;BME280;31092;51.924;21.448;2023-08-17T08:15:08;100402.84;;;28.39;100.00
45357;BME280;31092;51.924;21.448;2023-08-17T08:17:33;100470.09;;;28.75;100.00
45357;BME280;31092;51.924;21.448;2023-08-17T08:19:59;100468.72;;;28.68;100.00
45357;BME280;31092;51.924;21.448;2023-08-17T08:22:24;100465.97;;;28.57;100.00
45357;BME280;31092;51.924;21.448;2023-08-17T08:24:50;100399.78;;;28.15;100.00
45357;BME280;31092;51.924;21.448;2023-08-17T08:27:16;100464.88;;;28.53;100.00
45357;BME280;31092;51.924;21.448;2023-08-17T08:29:41;100470.66;;;28.62;100.00
45357;BME280;31092;51.924;21.448;2023-08-17T08:32:07;100452.94;;;28.53;100.00
45357;BME280;31092;51.924;21.448;2023-08-17T08:34:32;100462.38;;;28.57;100.00
45357;BME280;31092;51.924;21.448;2023-08-17T08:36:58;100417.78;;;28.33;100.00
45357;BME280;31092;51.924;21.448;2023-08-17T08:39:25;100486.69;;;28.80;100.00
45357;BME280;31092;51.924;21.448;2023-08-17T08:41:52;100424.13;;;28.54;100.00
45357;BME280;31092;51.924;21.448;2023-08-17T08:44:17;100435.63;;;28.92;100.00
45357;BME280;31092;51.924;21.448;2023-08-17T08:46:46;100422.53;;;29.18;100.00
45357;BME280;31092;51.924;21.448;2023-08-17T08:49:13;100499.53;;;29.96;100.00
45357;BME280;31092;51.924;21.448;2023-08-17T08:51:44;100435.50;;;29.77;100.00
45357;BME280;31092;51.924;21.448;2023-08-17T08:54:13;100432.63;;;29.87;100.00
45357;BME280;31092;51.924;21.448;2023-08-17T08:56:42;100497.81;;;30.34;100.00
45357;BME280;31092;51.924;21.448;2023-08-17T08:59:08;100486.72;;;30.34;100.00
45357;BME280;31092;51.924;21.448;2023-08-17T09:01:34;100504.34;;;30.53;100.00
45357;BME280;31092;51.924;21.448;2023-08-17T09:04:01;100450.34;;;30.30;100.00
45357;BME280;31092;51.924;21.448;2023-08-17T09:06:29;100445.03;;;30.34;100.00
45357;BME280;31092;51.924;21.448;2023-08-17T09:08:55;100505.81;;;30.75;100.00
45357;BME280;31092;51.924;21.448;2023-08-17T09:11:21;100463.13;;;30.61;100.00
45357;BME280;31092;51.924;21.448;2023-08-17T09:13:47;100476.59;;;30.72;100.00
45357;BME280;31092;51.924;21.448;2023-08-17T09:16:13;100528.19;;;31.13;100.00
45357;BME280;31092;51.924;21.448;2023-08-17T09:18:38;100518.25;;;31.07;100.00
45357;BME280;31092;51.924;21.448;2023-08-17T09:21:03;100504.94;;;31.04;100.00
45357;BME280;31092;51.924;21.448;2023-08-17T09:23:29;100520.50;;;31.29;100.00
45357;BME280;31092;51.924;21.448;2023-08-17T09:25:54;100500.16;;;31.33;100.00
45357;BME280;31092;51.924;21.448;2023-08-17T09:28:23;100511.94;;;31.87;100.00
45357;BME280;31092;51.924;21.448;2023-08-17T09:30:54;100504.72;;;32.37;100.00
45357;BME280;31092;51.924;21.448;2023-08-17T09:33:27;100449.44;;;32.45;100.00
45357;BME280;31092;51.924;21.448;2023-08-17T09:35:54;100462.38;;;32.68;100.00
45357;BME280;31092;51.924;21.448;2023-08-17T09:38:20;100504.78;;;33.11;100.00
45357;BME280;31092;51.924;21.448;2023-08-17T09:40:46;100480.59;;;33.21;100.00
45357;BME280;31092;51.924;21.448;2023-08-17T09:43:14;100507.44;;;33.44;100.00
45357;BME280;31092;51.924;21.448;2023-08-17T09:45:39;100472.91;;;33.26;100.00
45357;BME280;31092;51.924;21.448;2023-08-17T09:48:06;100485.53;;;33.51;100.00
45357;BME280;31092;51.924;21.448;2023-08-17T09:50:34;100529.22;;;33.83;100.00
45357;BME280;31092;51.924;21.448;2023-08-17T09:53:04;100531.31;;;33.64;100.00
45357;BME280;31092;51.924;21.448;2023-08-17T09:55:32;100486.47;;;33.33;100.00
45357;BME280;31092;51.924;21.448;2023-08-17T09:58:02;100491.31;;;33.41;100.00
45357;BME280;31092;51.924;21.448;2023-08-17T10:00:28;100531.28;;;33.78;100.00
45357;BME280;31092;51.924;21.448;2023-08-17T10:02:57;100506.53;;;33.49;100.00
45357;BME280;31092;51.924;21.448;2023-08-17T10:05:25;100542.16;;;33.79;100.00
45357;BME280;31092;51.924;21.448;2023-08-17T10:07:56;100505.38;;;33.50;100.00
45357;BME280;31092;51.924;21.448;2023-08-17T10:10:25;100486.97;;;33.35;100.00
45357;BME280;31092;51.924;21.448;2023-08-17T10:15:30;100537.81;;;33.87;100.00
45357;BME280;31092;51.924;21.448;2023-08-17T10:18:16;100522.66;;;34.02;100.00
45357;BME280;31092;51.924;21.448;2023-08-17T10:21:06;100502.34;;;34.10;100.00
45357;BME280;31092;51.924;21.448;2023-08-17T10:23:32;100502.75;;;34.26;100.00
45357;BME280;31092;51.924;21.448;2023-08-17T10:26:00;100481.81;;;34.37;100.00
45357;BME280;31092;51.924;21.448;2023-08-17T10:28:27;100528.94;;;34.75;100.00
45357;BME280;31092;51.924;21.448;2023-08-17T10:30:52;100539.75;;;34.99;100.00
45357;BME280;31092;51.924;21.448;2023-08-17T10:33:18;100496.59;;;34.91;100.00
45357;BME280;31092;51.924;21.448;2023-08-17T10:35:45;100496.00;;;35.03;100.00
45357;BME280;31092;51.924;21.448;2023-08-17T10:38:11;100546.09;;;35.13;100.00
45357;BME280;31092;51.924;21.448;2023-08-17T10:40:40;100541.38;;;35.00;100.00
45357;BME280;31092;51.924;21.448;2023-08-17T10:43:07;100552.31;;;35.01;100.00
45357;BME280;31092;51.924;21.448;2023-08-17T10:45:34;100497.75;;;34.59;100.00
45357;BME280;31092;51.924;21.448;2023-08-17T10:50:32;100539.03;;;34.85;100.00
45357;BME280;31092;51.924;21.448;2023-08-17T10:55:40;100552.09;;;34.98;100.00
45357;BME280;31092;51.924;21.448;2023-08-17T10:58:06;100534.59;;;34.84;99.00
45357;BME280;31092;51.924;21.448;2023-08-17T11:00:39;100502.56;;;34.22;97.04
45357;BME280;31092;51.924;21.448;2023-08-17T11:03:06;100550.19;;;34.08;98.24
45357;BME280;31092;51.924;21.448;2023-08-17T11:08:05;100557.41;;;33.32;98.91
45357;BME280;31092;51.924;21.448;2023-08-17T11:10:31;100515.06;;;32.83;100.00
45357;BME280;31092;51.924;21.448;2023-08-17T11:12:57;100517.63;;;32.52;100.00
45357;BME280;31092;51.924;21.448;2023-08-17T11:15:40;100556.53;;;32.57;100.00
45357;BME280;31092;51.924;21.448;2023-08-17T11:18:11;100556.13;;;32.50;100.00
45357;BME280;31092;51.924;21.448;2023-08-17T11:20:39;100554.97;;;32.32;100.00
45357;BME280;31092;51.924;21.448;2023-08-17T11:23:06;100565.25;;;32.18;100.00
45357;BME280;31092;51.924;21.448;2023-08-17T11:25:33;100555.03;;;32.13;100.00
45357;BME280;31092;51.924;21.448;2023-08-17T11:28:00;100564.94;;;32.19;100.00
45357;BME280;31092;51.924;21.448;2023-08-17T11:30:27;100560.81;;;32.17;100.00
45357;BME280;31092;51.924;21.448;2023-08-17T11:32:53;100567.78;;;32.33;100.00
45357;BME280;31092;51.924;21.448;2023-08-17T11:35:19;100558.31;;;32.34;100.00
45357;BME280;31092;51.924;21.448;2023-08-17T11:37:46;100552.53;;;32.31;100.00
45357;BME280;31092;51.924;21.448;2023-08-17T11:40:12;100510.38;;;32.00;100.00
45357;BME280;31092;51.924;21.448;2023-08-17T11:42:38;100557.97;;;32.03;100.00
45357;BME280;31092;51.924;21.448;2023-08-17T11:45:04;100502.50;;;31.45;100.00
45357;BME280;31092;51.924;21.448;2023-08-17T11:47:30;100556.63;;;31.58;100.00
45357;BME280;31092;51.924;21.448;2023-08-17T11:50:03;100489.63;;;31.06;100.00
45357;BME280;31092;51.924;21.448;2023-08-17T11:52:30;100441.00;;;30.74;100.00
45357;BME280;31092;51.924;21.448;2023-08-17T11:54:59;100485.34;;;31.14;100.00
45357;BME280;31092;51.924;21.448;2023-08-17T11:57:26;100539.91;;;31.58;100.00
45357;BME280;31092;51.924;21.448;2023-08-17T11:59:55;100550.31;;;31.71;100.00
45357;BME280;31092;51.924;21.448;2023-08-17T12:02:23;100509.50;;;31.42;100.00
45357;BME280;31092;51.924;21.448;2023-08-17T12:04:50;100538.63;;;31.50;100.00
45357;BME280;31092;51.924;21.448;2023-08-17T12:07:15;100547.56;;;31.47;100.00
45357;BME280;31092;51.924;21.448;2023-08-17T12:09:45;100470.66;;;31.08;100.00
45357;BME280;31092;51.924;21.448;2023-08-17T12:12:11;100531.19;;;31.64;100.00
45357;BME280;31092;51.924;21.448;2023-08-17T12:14:41;100473.69;;;31.55;100.00
45357;BME280;31092;51.924;21.448;2023-08-17T12:17:14;100518.56;;;31.91;100.00
45357;BME280;31092;51.924;21.448;2023-08-17T12:19:40;100522.50;;;31.90;100.00
45357;BME280;31092;51.924;21.448;2023-08-17T12:22:06;100481.75;;;31.56;100.00
45357;BME280;31092;51.924;21.448;2023-08-17T12:24:31;100520.88;;;31.65;100.00
45357;BME280;31092;51.924;21.448;2023-08-17T12:26:57;100519.84;;;31.37;100.00
45357;BME280;31092;51.924;21.448;2023-08-17T12:29:24;100475.53;;;30.97;100.00
45357;BME280;31092;51.924;21.448;2023-08-17T12:31:51;100524.56;;;31.12;100.00
45357;BME280;31092;51.924;21.448;2023-08-17T12:34:17;100519.19;;;30.97;100.00
45357;BME280;31092;51.924;21.448;2023-08-17T12:36:43;100527.38;;;30.88;100.00
45357;BME280;31092;51.924;21.448;2023-08-17T12:39:09;100534.00;;;30.92;100.00